Terminal Aerodrome Forecast
Issued by NWS Cleveland, OH

Home | Current Version | Previous Version | Text Only | Print | Product List | Glossary Off
Versions: 1 2 3 4 5 6 7 8 9 10 11 12 13 14 15 16 17 18 19 20 21 22 23 24 25 26 27 28 29 30 31

000
FTUS41 KCLE 031730
TAFCLE
TAF
KCLE 031730Z 0318/0424 32006KT P6SM FEW020 BKN070
     FM032300 24004KT P6SM BKN100
     FM040600 19010KT P6SM BKN250
     FM041800 19012KT P6SM -SHRA OVC035=

USA.gov is the U.S. government's official web portal to all federal, state and local government web resources and services.